HTIR/IRI METAR and TAF weather

Enter ICAO airport designator
Station Type Date Time Source
HTIR METAR 2020/11/25 21:00 UTC NOAA

HTIR 252100Z 00000KT 9999 FEW021 20/15 Q1019


Station Type Date Time Source
HTIR Decoded METAR 2020/11/25 21:00 UTC NOAA

Iringa, Tanzania (HTIR) 07-40S 035-45E 1428M
Nov 25, 2020 - 04:00 PM EST / 2020.11.25 2100 UTC
Wind: Calm:0
Visibility: greater than 7 mile(s):0
Sky conditions: mostly clear
Temperature: 68 F (20 C)
Dew Point: 59 F (15 C)
Relative Humidity: 72%
Pressure (altimeter): 30.09 in. Hg (1019 hPa)
ob: HTIR 252100Z 00000KT 9999 FEW021 20/15 Q1019
cycle: 21

Station Type Date Time Source
HTIR TAF UTC NOAA

Error!

Example: see airport list